createdAt,value
2023-12-30T00:00:42.856Z,61.07
2023-12-30T00:01:39.605Z,57.04
2023-12-30T00:02:39.491Z,56.88
2023-12-30T00:03:39.536Z,53.01
2023-12-30T00:04:44.367Z,64.78
2023-12-30T00:05:39.504Z,56.72
2023-12-30T00:06:39.588Z,56.07
2023-12-30T00:07:41.765Z,55.11
2023-12-30T00:08:40.492Z,62.68
2023-12-30T00:09:41.471Z,56.24
2023-12-30T00:10:39.411Z,48.82
2023-12-30T00:11:39.525Z,47.21
2023-12-30T00:12:44.521Z,56.72
2023-12-30T00:13:40.783Z,56.72
2023-12-30T00:14:43.085Z,55.91
2023-12-30T00:15:40.313Z,63.65
2023-12-30T00:16:40.755Z,58.01
2023-12-30T00:17:40.263Z,53.66
2023-12-30T00:18:44.945Z,53.01
2023-12-30T00:19:41.666Z,59.14
2023-12-30T00:20:41.801Z,54.14
2023-12-30T00:21:44.477Z,54.79
2023-12-30T00:22:40.518Z,48.18
2023-12-30T00:23:45.909Z,55.11
2023-12-30T00:24:42.862Z,58.33
2023-12-30T00:25:42.749Z,48.50
2023-12-30T00:26:40.460Z,48.98
2023-12-30T00:27:39.926Z,62.04
2023-12-30T00:28:41.302Z,55.43
2023-12-30T00:29:46.931Z,60.42
2023-12-30T00:30:39.268Z,55.11
2023-12-30T00:31:40.521Z,47.53
2023-12-30T00:32:39.365Z,49.15
2023-12-30T00:33:40.639Z,50.27
2023-12-30T00:34:42.126Z,56.24
2023-12-30T00:35:40.403Z,62.36
2023-12-30T00:36:41.747Z,48.98
2023-12-30T00:37:41.317Z,55.27
2023-12-30T00:38:40.593Z,50.92
2023-12-30T00:39:41.820Z,47.70
2023-12-30T00:40:39.605Z,50.60
2023-12-30T00:41:41.510Z,55.11
2023-12-30T00:42:41.171Z,51.88
2023-12-30T00:43:40.651Z,54.30
2023-12-30T00:44:41.493Z,48.02
2023-12-30T00:45:39.057Z,46.89
2023-12-30T00:46:40.099Z,48.18
2023-12-30T00:47:39.050Z,52.69
2023-12-30T00:48:39.309Z,46.89
2023-12-30T00:49:42.640Z,53.50
2023-12-30T00:50:38.990Z,45.44
2023-12-30T00:51:41.394Z,47.86
2023-12-30T00:52:40.709Z,45.28
2023-12-30T00:53:40.555Z,53.17
2023-12-30T00:54:44.679Z,49.63
2023-12-30T00:55:40.930Z,51.08
2023-12-30T00:56:40.343Z,49.79
2023-12-30T00:57:41.009Z,48.34
2023-12-30T00:58:38.895Z,46.57
2023-12-30T00:59:39.441Z,47.70
2023-12-30T01:00:42.169Z,57.20
2023-12-30T01:01:39.465Z,50.60
2023-12-30T01:02:39.364Z,55.43
2023-12-30T01:03:38.893Z,50.76
2023-12-30T01:04:39.051Z,47.37
2023-12-30T01:05:40.108Z,44.96
2023-12-30T01:06:40.676Z,60.91
2023-12-30T01:07:40.154Z,62.36
2023-12-30T01:08:39.171Z,64.78
2023-12-30T01:09:38.746Z,47.37
2023-12-30T01:10:39.334Z,49.31
2023-12-30T01:11:40.491Z,59.94
2023-12-30T01:12:39.177Z,56.72
2023-12-30T01:13:38.768Z,49.63
2023-12-30T01:14:40.116Z,51.72
2023-12-30T01:15:38.705Z,45.76
2023-12-30T01:16:42.510Z,44.31
2023-12-30T01:17:41.250Z,47.70
2023-12-30T01:18:38.924Z,53.01
2023-12-30T01:19:38.677Z,61.39
2023-12-30T01:20:40.012Z,63.49
2023-12-30T01:21:38.631Z,49.63
2023-12-30T01:22:38.803Z,51.88
2023-12-30T01:23:39.933Z,49.63
2023-12-30T01:24:38.612Z,53.66
2023-12-30T01:25:41.243Z,46.73
2023-12-30T01:26:39.647Z,52.53
2023-12-30T01:27:39.852Z,49.95
2023-12-30T01:28:39.825Z,56.40
2023-12-30T01:29:38.555Z,54.30
2023-12-30T01:30:40.097Z,59.14
2023-12-30T01:31:40.919Z,59.62
2023-12-30T01:32:39.950Z,46.25
2023-12-30T01:33:40.864Z,44.96
2023-12-30T01:34:38.636Z,56.24
2023-12-30T01:35:38.505Z,48.98
2023-12-30T01:36:38.496Z,53.66
2023-12-30T01:37:38.560Z,47.70
2023-12-30T01:38:38.529Z,57.36
2023-12-30T01:39:38.514Z,54.62
2023-12-30T01:40:38.469Z,50.92
2023-12-30T01:41:38.489Z,57.85
2023-12-30T01:42:38.442Z,56.24
2023-12-30T01:43:38.596Z,55.91
2023-12-30T01:44:38.368Z,59.78
2023-12-30T01:45:39.632Z,55.43
2023-12-30T01:46:38.363Z,49.15
2023-12-30T01:47:38.687Z,51.72
2023-12-30T01:48:38.440Z,56.40
2023-12-30T01:49:38.468Z,52.85
2023-12-30T01:50:40.486Z,57.85
2023-12-30T01:51:38.290Z,47.70
2023-12-30T01:52:38.422Z,50.27
2023-12-30T01:53:38.506Z,47.86
2023-12-30T01:54:38.284Z,50.11
2023-12-30T01:55:41.461Z,50.76
2023-12-30T01:56:39.262Z,63.16
2023-12-30T01:57:38.865Z,45.60
2023-12-30T01:58:40.203Z,48.34
2023-12-30T01:59:38.210Z,52.85
2023-12-30T02:00:40.093Z,59.30
2023-12-30T02:01:39.807Z,55.11
2023-12-30T02:02:39.292Z,55.91
2023-12-30T02:03:38.367Z,47.37
2023-12-30T02:04:38.346Z,46.41
2023-12-30T02:05:38.290Z,53.66
2023-12-30T02:06:38.206Z,49.47
2023-12-30T02:07:38.173Z,51.88
2023-12-30T02:08:39.174Z,51.24
2023-12-30T02:09:38.244Z,51.40
2023-12-30T02:10:38.190Z,46.25
2023-12-30T02:11:38.143Z,48.50
2023-12-30T02:12:38.189Z,53.17
2023-12-30T02:13:38.759Z,54.14
2023-12-30T02:14:38.135Z,53.98
2023-12-30T02:15:38.068Z,56.88
2023-12-30T02:16:38.115Z,46.08
2023-12-30T02:17:38.159Z,46.08
2023-12-30T02:18:38.143Z,46.57
2023-12-30T02:19:38.038Z,54.14
2023-12-30T02:20:41.044Z,51.24
2023-12-30T02:21:38.712Z,50.92
2023-12-30T02:22:39.094Z,54.95
2023-12-30T02:23:39.017Z,48.34
2023-12-30T02:24:39.194Z,48.66
2023-12-30T02:25:38.077Z,45.92
2023-12-30T02:26:40.234Z,46.73
2023-12-30T02:27:38.993Z,46.57
2023-12-30T02:28:38.240Z,53.01
2023-12-30T02:29:38.138Z,46.08
2023-12-30T02:30:40.061Z,47.21
2023-12-30T02:31:38.898Z,52.53
2023-12-30T02:32:37.934Z,53.33
2023-12-30T02:33:38.046Z,48.02
2023-12-30T02:34:37.926Z,63.00
2023-12-30T02:35:38.840Z,48.98
2023-12-30T02:36:37.809Z,47.86
2023-12-30T02:37:38.778Z,46.89
2023-12-30T02:38:37.808Z,56.24
2023-12-30T02:39:37.993Z,48.18
2023-12-30T02:40:38.527Z,45.92
2023-12-30T02:41:37.773Z,45.44
2023-12-30T02:42:37.801Z,45.92
2023-12-30T02:43:37.821Z,54.79
2023-12-30T02:44:38.681Z,51.40
2023-12-30T02:45:40.125Z,52.53
2023-12-30T02:46:37.896Z,46.25
2023-12-30T02:47:38.024Z,46.08
2023-12-30T02:48:37.742Z,58.65
2023-12-30T02:49:37.753Z,44.96
2023-12-30T02:50:38.653Z,50.92
2023-12-30T02:51:39.016Z,48.34
2023-12-30T02:52:38.494Z,48.98
2023-12-30T02:53:38.155Z,53.01
2023-12-30T02:54:39.045Z,44.47
2023-12-30T02:55:40.204Z,46.73
2023-12-30T02:56:38.574Z,44.63
2023-12-30T02:57:48.574Z,58.65
2023-12-30T02:58:38.600Z,45.76
2023-12-30T02:59:38.616Z,50.60
2023-12-30T03:00:37.683Z,46.57
2023-12-30T03:01:40.193Z,45.92
2023-12-30T03:02:38.218Z,47.05
2023-12-30T03:03:37.545Z,48.02
2023-12-30T03:04:38.594Z,55.91
2023-12-30T03:05:39.386Z,56.40
2023-12-30T03:06:38.203Z,46.25
2023-12-30T03:07:37.454Z,55.91
2023-12-30T03:08:39.104Z,48.82
2023-12-30T03:09:38.586Z,55.11
2023-12-30T03:10:39.031Z,54.14
2023-12-30T03:11:39.953Z,50.43
2023-12-30T03:12:38.534Z,54.95
2023-12-30T03:13:38.930Z,50.60
2023-12-30T03:14:37.408Z,50.43
2023-12-30T03:15:37.395Z,56.24
2023-12-30T03:16:37.440Z,60.42
2023-12-30T03:17:37.700Z,44.96
2023-12-30T03:18:37.467Z,49.31
2023-12-30T03:19:37.368Z,52.85
2023-12-30T03:20:37.342Z,51.08
2023-12-30T03:21:37.383Z,44.79
2023-12-30T03:22:37.356Z,45.44
2023-12-30T03:23:37.372Z,61.23
2023-12-30T03:24:37.355Z,50.76
2023-12-30T03:25:37.400Z,47.86
2023-12-30T03:26:37.283Z,51.40
2023-12-30T03:27:38.409Z,45.60
2023-12-30T03:28:37.317Z,60.91
2023-12-30T03:29:37.257Z,51.88
2023-12-30T03:30:37.276Z,58.49
2023-12-30T03:31:37.232Z,47.21
2023-12-30T03:32:37.254Z,46.89
2023-12-30T03:33:37.375Z,47.86
2023-12-30T03:34:37.414Z,46.41
2023-12-30T03:35:37.151Z,57.04
2023-12-30T03:36:37.147Z,53.66
2023-12-30T03:37:37.234Z,58.49
2023-12-30T03:38:37.185Z,48.98
2023-12-30T03:39:37.280Z,49.63
2023-12-30T03:40:37.180Z,49.95
2023-12-30T03:41:37.084Z,47.53
2023-12-30T03:42:37.071Z,44.63
2023-12-30T03:43:37.183Z,59.78
2023-12-30T03:44:37.087Z,47.86
2023-12-30T03:45:37.031Z,64.45
2023-12-30T03:46:37.071Z,57.69
2023-12-30T03:47:37.055Z,59.46
2023-12-30T03:48:37.028Z,56.72
2023-12-30T03:49:37.183Z,52.85
2023-12-30T03:50:37.555Z,55.27
2023-12-30T03:51:37.049Z,45.76
2023-12-30T03:52:37.104Z,47.21
2023-12-30T03:53:37.039Z,58.17
2023-12-30T03:54:36.980Z,61.39
2023-12-30T03:55:37.137Z,52.37
2023-12-30T03:56:36.936Z,61.23
2023-12-30T03:57:37.537Z,61.71
2023-12-30T03:58:36.970Z,60.26
2023-12-30T03:59:36.962Z,58.01
2023-12-30T04:00:36.979Z,59.30
2023-12-30T04:01:38.083Z,44.47
2023-12-30T04:02:36.972Z,64.94
2023-12-30T04:03:36.841Z,66.06
2023-12-30T04:04:36.941Z,54.30
2023-12-30T04:05:36.873Z,47.70
2023-12-30T04:06:36.803Z,46.08
2023-12-30T04:07:36.909Z,49.31
2023-12-30T04:08:36.816Z,57.52
2023-12-30T04:09:36.747Z,51.24
2023-12-30T04:10:36.875Z,44.15
2023-12-30T04:11:36.796Z,62.52
2023-12-30T04:12:36.830Z,53.98
2023-12-30T04:13:36.798Z,61.87
2023-12-30T04:14:36.725Z,46.25
2023-12-30T04:15:37.625Z,64.61
2023-12-30T04:16:36.733Z,56.88
2023-12-30T04:17:36.815Z,54.46
2023-12-30T04:18:38.260Z,52.21
2023-12-30T04:19:36.726Z,66.71
2023-12-30T04:20:36.711Z,54.14
2023-12-30T04:21:36.661Z,57.85
2023-12-30T04:22:36.704Z,47.53
2023-12-30T04:23:36.667Z,53.98
2023-12-30T04:24:36.660Z,50.60
2023-12-30T04:25:36.786Z,52.53
2023-12-30T04:26:36.670Z,58.97
2023-12-30T04:27:36.659Z,58.81
2023-12-30T04:28:36.742Z,49.31
2023-12-30T04:29:36.660Z,51.88
2023-12-30T04:30:36.737Z,55.43
2023-12-30T04:31:36.660Z,59.30
2023-12-30T04:32:36.605Z,58.33
2023-12-30T04:33:36.828Z,58.81
2023-12-30T04:34:36.566Z,64.45
2023-12-30T04:35:36.573Z,64.29
2023-12-30T04:36:36.501Z,65.26
2023-12-30T04:37:36.738Z,47.37
2023-12-30T04:38:36.463Z,47.21
2023-12-30T04:39:36.638Z,53.01
2023-12-30T04:40:36.634Z,52.05
2023-12-30T04:41:36.782Z,53.17
2023-12-30T04:42:36.650Z,58.01
2023-12-30T04:43:36.483Z,59.30
2023-12-30T04:44:36.504Z,52.21
2023-12-30T04:45:36.420Z,54.95
2023-12-30T04:46:36.487Z,57.36
2023-12-30T04:47:36.387Z,64.13
2023-12-30T04:48:36.460Z,51.08
2023-12-30T04:49:36.495Z,63.81
2023-12-30T04:50:36.625Z,51.88
2023-12-30T04:51:36.720Z,55.11
2023-12-30T04:52:36.670Z,48.66
2023-12-30T04:53:36.282Z,59.78
2023-12-30T04:54:36.329Z,62.52
2023-12-30T04:55:38.377Z,60.59
2023-12-30T04:56:37.921Z,67.84
2023-12-30T04:57:36.258Z,58.65
2023-12-30T04:58:36.227Z,55.59
2023-12-30T04:59:38.923Z,60.42
2023-12-30T05:00:38.236Z,49.95
2023-12-30T05:01:37.792Z,51.72
2023-12-30T05:02:37.904Z,61.39
2023-12-30T05:03:37.160Z,59.46
2023-12-30T05:04:37.895Z,63.81
2023-12-30T05:05:37.580Z,53.98
2023-12-30T05:06:37.547Z,63.81
2023-12-30T05:07:41.096Z,61.39
2023-12-30T05:08:36.177Z,53.50
2023-12-30T05:09:37.172Z,65.10
2023-12-30T05:10:36.311Z,52.21
2023-12-30T05:11:36.062Z,56.88
2023-12-30T05:12:37.646Z,66.23
2023-12-30T05:13:38.068Z,62.84
2023-12-30T05:14:37.243Z,65.58
2023-12-30T05:15:38.423Z,55.91
2023-12-30T05:16:40.168Z,65.58
2023-12-30T05:17:37.449Z,65.10
2023-12-30T05:18:36.124Z,65.90
2023-12-30T05:19:40.106Z,60.75
2023-12-30T05:20:36.979Z,58.49
2023-12-30T05:21:39.059Z,61.87
2023-12-30T05:22:37.443Z,59.46
2023-12-30T05:23:39.438Z,55.27
2023-12-30T05:24:35.967Z,55.27
2023-12-30T05:25:37.036Z,66.23
2023-12-30T05:26:36.017Z,63.97
2023-12-30T05:27:35.894Z,56.72
2023-12-30T05:28:37.141Z,65.10
2023-12-30T05:29:35.883Z,62.04
2023-12-30T05:30:36.468Z,66.06
2023-12-30T05:31:36.295Z,57.85
2023-12-30T05:32:37.497Z,61.87
2023-12-30T05:33:36.023Z,64.61
2023-12-30T05:34:39.466Z,62.36
2023-12-30T05:35:36.070Z,59.14
2023-12-30T05:36:35.789Z,66.55
2023-12-30T05:37:39.724Z,63.49
2023-12-30T05:38:38.155Z,66.87
2023-12-30T05:39:36.757Z,64.78
2023-12-30T05:40:37.202Z,53.17
2023-12-30T05:41:35.719Z,47.70
2023-12-30T05:42:35.855Z,59.78
2023-12-30T05:43:37.014Z,64.13
2023-12-30T05:44:35.698Z,65.74
2023-12-30T05:45:36.696Z,63.81
2023-12-30T05:46:36.746Z,60.26
2023-12-30T05:47:35.722Z,54.14
2023-12-30T05:48:35.688Z,58.65
2023-12-30T05:49:39.088Z,66.71
2023-12-30T05:50:35.642Z,60.75
2023-12-30T05:51:36.798Z,64.94
2023-12-30T05:52:36.709Z,56.72
2023-12-30T05:53:35.733Z,56.72
2023-12-30T05:54:36.708Z,59.78
2023-12-30T05:55:35.714Z,62.36
2023-12-30T05:56:37.110Z,51.24
2023-12-30T05:57:39.360Z,61.87
2023-12-30T05:58:36.882Z,70.09
2023-12-30T05:59:37.265Z,67.51
2023-12-30T06:00:36.491Z,63.33
2023-12-30T06:01:36.554Z,58.33
2023-12-30T06:02:35.689Z,63.16
2023-12-30T06:03:36.571Z,49.79
2023-12-30T06:04:36.752Z,50.76
2023-12-30T06:05:36.402Z,63.16
2023-12-30T06:06:37.397Z,66.23
2023-12-30T06:07:35.545Z,47.86
2023-12-30T06:08:35.449Z,47.70
2023-12-30T06:09:38.576Z,57.20
2023-12-30T06:10:42.412Z,60.75
2023-12-30T06:11:37.385Z,56.07
2023-12-30T06:12:35.395Z,65.10
2023-12-30T06:13:36.912Z,67.68
2023-12-30T06:14:36.427Z,59.78
2023-12-30T06:15:37.640Z,59.78
2023-12-30T06:16:36.732Z,48.02
2023-12-30T06:17:36.178Z,48.18
2023-12-30T06:18:36.398Z,55.75
2023-12-30T06:19:35.336Z,63.33
2023-12-30T06:20:40.468Z,60.75
2023-12-30T06:21:38.190Z,57.20
2023-12-30T06:22:36.415Z,60.59
2023-12-30T06:23:36.734Z,59.30
2023-12-30T06:24:35.278Z,60.26
2023-12-30T06:25:35.591Z,58.33
2023-12-30T06:26:35.217Z,61.23
2023-12-30T06:27:36.232Z,65.10
2023-12-30T06:28:35.388Z,59.94
2023-12-30T06:29:37.599Z,59.62
2023-12-30T06:30:36.414Z,61.87
2023-12-30T06:31:36.980Z,60.75
2023-12-30T06:32:35.242Z,57.20
2023-12-30T06:33:38.421Z,62.84
2023-12-30T06:34:36.350Z,63.00
2023-12-30T06:35:36.769Z,61.07
2023-12-30T06:36:35.119Z,66.23
2023-12-30T06:37:37.727Z,61.07
2023-12-30T06:38:38.713Z,63.97
2023-12-30T06:39:35.099Z,61.71
2023-12-30T06:40:35.157Z,59.14
2023-12-30T06:41:36.248Z,61.39
2023-12-30T06:42:37.717Z,67.68
2023-12-30T06:43:36.136Z,64.45
2023-12-30T06:44:35.037Z,64.45
2023-12-30T06:45:36.654Z,58.33
2023-12-30T06:46:36.831Z,64.29
2023-12-30T06:47:35.040Z,64.61
2023-12-30T06:48:36.501Z,67.84
2023-12-30T06:49:34.988Z,63.81
2023-12-30T06:50:36.177Z,67.51
2023-12-30T06:51:36.027Z,61.23
2023-12-30T06:52:38.198Z,68.64
2023-12-30T06:53:36.142Z,64.78
2023-12-30T06:54:36.910Z,67.19
2023-12-30T06:55:38.789Z,58.33
2023-12-30T06:56:36.950Z,68.96
2023-12-30T06:57:39.990Z,52.37
2023-12-30T06:58:34.939Z,52.69
2023-12-30T06:59:37.530Z,65.58
2023-12-30T07:00:36.413Z,50.43
2023-12-30T07:01:37.689Z,55.27
2023-12-30T07:02:34.930Z,61.07
2023-12-30T07:03:38.713Z,60.10
2023-12-30T07:04:36.835Z,58.65
2023-12-30T07:05:34.878Z,62.52
2023-12-30T07:06:36.262Z,66.06
2023-12-30T07:07:35.206Z,69.77
2023-12-30T07:08:37.255Z,64.29
2023-12-30T07:09:36.916Z,57.20
2023-12-30T07:10:34.894Z,60.75
2023-12-30T07:11:37.029Z,66.71
2023-12-30T07:12:38.454Z,56.72
2023-12-30T07:13:35.982Z,56.24
2023-12-30T07:14:35.973Z,60.42
2023-12-30T07:15:36.931Z,63.49
2023-12-30T07:16:37.127Z,62.68
2023-12-30T07:17:36.790Z,61.39
2023-12-30T07:18:34.659Z,65.26
2023-12-30T07:19:35.830Z,64.78
2023-12-30T07:20:34.637Z,65.10
2023-12-30T07:21:35.910Z,56.40
2023-12-30T07:22:35.732Z,60.42
2023-12-30T07:23:35.900Z,64.45
2023-12-30T07:24:34.584Z,67.35
2023-12-30T07:25:38.105Z,65.10
2023-12-30T07:26:38.993Z,68.00
2023-12-30T07:27:36.693Z,57.04
2023-12-30T07:28:36.188Z,64.29
2023-12-30T07:29:39.368Z,60.91
2023-12-30T07:30:34.663Z,64.94
2023-12-30T07:31:36.030Z,67.51
2023-12-30T07:32:37.087Z,68.32
2023-12-30T07:33:35.748Z,66.06
2023-12-30T07:34:34.657Z,59.62
2023-12-30T07:35:35.657Z,63.33
2023-12-30T07:36:34.484Z,59.62
2023-12-30T07:37:38.682Z,63.49
2023-12-30T07:38:36.668Z,64.94
2023-12-30T07:39:34.491Z,61.39
2023-12-30T07:40:35.736Z,70.74
2023-12-30T07:41:36.809Z,70.42
2023-12-30T07:42:37.102Z,67.19
2023-12-30T07:43:34.579Z,67.68
2023-12-30T07:44:35.956Z,70.58
2023-12-30T07:45:35.463Z,68.96
2023-12-30T07:46:38.993Z,63.33
2023-12-30T07:47:34.336Z,69.13
2023-12-30T07:48:34.381Z,70.58
2023-12-30T07:49:37.294Z,68.16
2023-12-30T07:50:35.451Z,60.10
2023-12-30T07:51:36.994Z,61.07
2023-12-30T07:52:36.923Z,62.68
2023-12-30T07:53:34.815Z,67.19
2023-12-30T07:54:35.509Z,67.68
2023-12-30T07:55:36.292Z,66.87
2023-12-30T07:56:35.243Z,58.65
2023-12-30T07:57:34.202Z,62.36
2023-12-30T07:58:38.649Z,69.45
2023-12-30T07:59:38.293Z,70.58
2023-12-30T08:00:34.215Z,65.58
2023-12-30T08:01:34.254Z,58.17
2023-12-30T08:02:34.375Z,61.23
2023-12-30T08:03:35.503Z,66.06
2023-12-30T08:04:35.184Z,64.61
2023-12-30T08:05:35.318Z,68.48
2023-12-30T08:06:35.102Z,68.16
2023-12-30T08:07:36.282Z,66.71
2023-12-30T08:08:36.605Z,65.58
2023-12-30T08:09:36.639Z,66.55
2023-12-30T08:11:42.560Z,66.39
2023-12-30T08:12:37.337Z,68.48
2023-12-30T08:13:38.018Z,65.42
2023-12-30T08:14:36.149Z,64.61
2023-12-30T08:15:34.668Z,66.71
2023-12-30T08:16:36.171Z,72.03
2023-12-30T08:17:34.255Z,69.61
2023-12-30T08:18:34.313Z,66.55
2023-12-30T08:19:34.145Z,65.26
2023-12-30T08:20:33.975Z,69.45
2023-12-30T08:21:34.126Z,61.39
2023-12-30T08:22:34.043Z,63.49
2023-12-30T08:23:33.939Z,71.06
2023-12-30T08:24:33.945Z,66.55
2023-12-30T08:25:34.016Z,68.16
2023-12-30T08:26:33.977Z,62.04
2023-12-30T08:27:34.912Z,59.62
2023-12-30T08:28:33.897Z,72.03
2023-12-30T08:29:33.876Z,67.51
2023-12-30T08:30:33.937Z,68.96
2023-12-30T08:31:33.950Z,68.00
2023-12-30T08:32:33.864Z,69.77
2023-12-30T08:33:34.018Z,68.32
2023-12-30T08:34:33.977Z,71.22
2023-12-30T08:35:34.070Z,64.94
2023-12-30T08:36:33.842Z,68.48
2023-12-30T08:37:33.872Z,69.77
2023-12-30T08:38:33.761Z,69.93
2023-12-30T08:39:33.757Z,69.61
2023-12-30T08:40:36.239Z,69.13
2023-12-30T08:41:33.750Z,70.74
2023-12-30T08:42:33.793Z,68.48
2023-12-30T08:43:33.768Z,67.68
2023-12-30T08:44:33.711Z,69.93
2023-12-30T08:45:33.749Z,71.06
2023-12-30T08:46:33.819Z,69.93
2023-12-30T08:47:33.668Z,69.13
2023-12-30T08:48:33.841Z,71.38
2023-12-30T08:49:33.809Z,65.26
2023-12-30T08:50:33.737Z,69.29
2023-12-30T08:51:33.818Z,67.03
2023-12-30T08:52:33.693Z,68.16
2023-12-30T08:53:33.678Z,66.87
2023-12-30T08:54:33.622Z,67.19
2023-12-30T08:55:33.665Z,64.61
2023-12-30T08:56:33.794Z,68.48
2023-12-30T08:57:33.559Z,68.80
2023-12-30T08:58:33.652Z,69.77
2023-12-30T08:59:34.017Z,71.06
2023-12-30T09:00:33.644Z,70.90
2023-12-30T09:01:33.633Z,65.26
2023-12-30T09:02:33.494Z,63.33
2023-12-30T09:03:33.615Z,69.93
2023-12-30T09:04:33.604Z,70.25
2023-12-30T09:05:33.688Z,72.19
2023-12-30T09:06:33.458Z,68.48
2023-12-30T09:07:33.712Z,69.77
2023-12-30T09:08:33.441Z,70.09
2023-12-30T09:09:33.482Z,67.51
2023-12-30T09:10:33.592Z,68.96
2023-12-30T09:11:33.448Z,72.35
2023-12-30T09:12:33.398Z,64.13
2023-12-30T09:13:33.414Z,70.25
2023-12-30T09:14:33.529Z,70.74
2023-12-30T09:15:33.364Z,69.61
2023-12-30T09:16:33.393Z,70.74
2023-12-30T09:17:33.521Z,69.77
2023-12-30T09:18:33.387Z,68.00
2023-12-30T09:19:33.424Z,70.58
2023-12-30T09:20:33.428Z,70.58
2023-12-30T09:21:33.297Z,68.16
2023-12-30T09:22:33.342Z,69.13
2023-12-30T09:23:33.329Z,71.06
2023-12-30T09:24:33.268Z,71.38
2023-12-30T09:25:33.269Z,70.25
2023-12-30T09:26:33.226Z,68.00
2023-12-30T09:27:33.250Z,68.16
2023-12-30T09:28:33.344Z,70.42
2023-12-30T09:29:33.257Z,70.25
2023-12-30T09:30:33.261Z,71.38
2023-12-30T09:31:33.204Z,70.90
2023-12-30T09:32:33.205Z,65.26
2023-12-30T09:33:33.441Z,70.58
2023-12-30T09:34:41.339Z,69.77
2023-12-30T09:35:35.245Z,73.64
2023-12-30T09:36:33.141Z,72.19
2023-12-30T09:37:33.192Z,68.64
2023-12-30T09:38:33.178Z,71.22
2023-12-30T09:39:33.088Z,72.19
2023-12-30T09:40:33.207Z,71.22
2023-12-30T09:41:33.135Z,71.06
2023-12-30T09:42:33.055Z,67.19
2023-12-30T09:43:33.072Z,71.06
2023-12-30T09:44:33.083Z,69.77
2023-12-30T09:45:33.068Z,69.61
2023-12-30T09:46:33.056Z,71.22
2023-12-30T09:47:33.091Z,70.25
2023-12-30T09:48:33.209Z,69.61
2023-12-30T09:49:33.052Z,71.70
2023-12-30T09:50:32.992Z,69.45
2023-12-30T09:51:32.974Z,70.09
2023-12-30T09:52:33.100Z,67.35
2023-12-30T09:53:33.025Z,71.70
2023-12-30T09:54:42.326Z,70.58
2023-12-30T09:55:35.042Z,71.38
2023-12-30T09:56:32.944Z,74.12
2023-12-30T09:57:32.950Z,68.32
2023-12-30T09:58:32.927Z,70.09
2023-12-30T09:59:32.916Z,70.09
2023-12-30T10:00:32.900Z,71.22
2023-12-30T10:01:33.056Z,70.74
2023-12-30T10:02:32.859Z,71.06
2023-12-30T10:03:39.065Z,69.77
2023-12-30T10:04:37.082Z,71.06
2023-12-30T10:05:36.123Z,68.32
2023-12-30T10:06:37.010Z,73.48
2023-12-30T10:07:35.204Z,72.51
2023-12-30T10:08:35.365Z,68.96
2023-12-30T10:09:34.864Z,71.22
2023-12-30T10:10:35.037Z,72.99
2023-12-30T10:11:35.505Z,72.83
2023-12-30T10:12:34.209Z,71.70
2023-12-30T10:13:34.268Z,70.58
2023-12-30T10:14:35.438Z,68.32
2023-12-30T10:15:36.325Z,65.10
2023-12-30T10:16:35.033Z,71.87
2023-12-30T10:17:33.988Z,71.54
2023-12-30T10:18:34.577Z,71.22
2023-12-30T10:19:36.585Z,64.45
2023-12-30T10:20:33.473Z,72.03
2023-12-30T10:21:37.487Z,68.16
2023-12-30T10:22:34.200Z,70.09
2023-12-30T10:23:32.615Z,72.03
2023-12-30T10:24:36.686Z,72.35
2023-12-30T10:25:32.800Z,72.03
2023-12-30T10:26:37.106Z,72.99
2023-12-30T10:27:36.702Z,71.22
2023-12-30T10:28:36.155Z,71.22
2023-12-30T10:29:46.059Z,69.13
2023-12-30T10:30:35.713Z,73.15
2023-12-30T10:31:35.366Z,71.70
2023-12-30T10:32:34.151Z,69.61
2023-12-30T10:33:36.229Z,71.87
2023-12-30T10:34:34.771Z,69.45
2023-12-30T10:35:34.274Z,72.03
2023-12-30T10:36:32.478Z,63.49
2023-12-30T10:37:38.366Z,73.32
2023-12-30T10:38:34.234Z,70.42
2023-12-30T10:39:35.357Z,71.22
2023-12-30T10:40:35.750Z,71.06
2023-12-30T10:41:35.022Z,74.28
2023-12-30T10:42:32.654Z,71.70
2023-12-30T10:43:49.435Z,72.51
2023-12-30T10:44:35.183Z,72.67
2023-12-30T10:45:33.914Z,71.06
2023-12-30T10:46:32.901Z,72.83
2023-12-30T10:47:32.427Z,72.67
2023-12-30T10:48:34.986Z,72.67
2023-12-30T10:49:32.843Z,71.87
2023-12-30T10:50:36.683Z,69.77
2023-12-30T10:51:35.324Z,71.87
2023-12-30T10:52:33.583Z,71.70
2023-12-30T10:53:32.257Z,70.58
2023-12-30T10:54:32.325Z,72.03
2023-12-30T10:55:33.723Z,69.77
2023-12-30T10:56:32.897Z,70.25
2023-12-30T10:57:33.652Z,71.87
2023-12-30T10:58:36.824Z,71.87
2023-12-30T10:59:34.556Z,72.19
2023-12-30T11:00:34.296Z,72.51
2023-12-30T11:01:33.823Z,70.58
2023-12-30T11:02:32.754Z,70.25
2023-12-30T11:03:34.672Z,70.42
2023-12-30T11:04:32.216Z,72.51
2023-12-30T11:05:35.344Z,70.25
2023-12-30T11:06:32.220Z,70.58
2023-12-30T11:07:34.771Z,72.99
2023-12-30T11:08:33.756Z,71.70
2023-12-30T11:09:34.643Z,70.74
2023-12-30T11:10:35.219Z,70.58
2023-12-30T11:11:34.643Z,71.54
2023-12-30T11:12:33.000Z,70.58
2023-12-30T11:13:35.879Z,69.61
2023-12-30T11:14:32.181Z,69.93
2023-12-30T11:15:34.456Z,71.54
2023-12-30T11:16:34.321Z,69.93
2023-12-30T11:17:33.736Z,69.61
2023-12-30T11:18:33.566Z,67.84
2023-12-30T11:19:34.136Z,70.25
2023-12-30T11:20:32.052Z,72.19
2023-12-30T11:21:33.383Z,70.90
2023-12-30T11:22:33.572Z,69.77
2023-12-30T11:23:33.273Z,72.99
2023-12-30T11:24:33.784Z,68.80
2023-12-30T11:25:33.410Z,68.48
2023-12-30T11:26:32.001Z,70.90
2023-12-30T11:27:32.932Z,68.16
2023-12-30T11:28:33.206Z,69.45
2023-12-30T11:29:31.899Z,73.15
2023-12-30T11:30:35.491Z,69.77
2023-12-30T11:31:31.900Z,71.70
2023-12-30T11:32:33.666Z,72.51
2023-12-30T11:33:34.365Z,67.19
2023-12-30T11:34:33.595Z,71.22
2023-12-30T11:35:33.032Z,70.25
2023-12-30T11:36:33.108Z,72.19
2023-12-30T11:37:35.022Z,72.51
2023-12-30T11:38:32.494Z,69.45
2023-12-30T11:39:32.818Z,72.99
2023-12-30T11:40:33.228Z,72.99
2023-12-30T11:41:34.052Z,67.35
2023-12-30T11:42:48.239Z,72.67
2023-12-30T11:43:33.923Z,73.48
2023-12-30T11:44:32.333Z,72.83
2023-12-30T11:45:34.921Z,70.74
2023-12-30T11:46:32.191Z,71.22
2023-12-30T11:47:33.924Z,74.12
2023-12-30T11:48:31.899Z,73.15
2023-12-30T11:49:33.422Z,71.22
2023-12-30T11:50:31.734Z,72.19
2023-12-30T11:51:31.720Z,70.74
2023-12-30T11:52:31.725Z,68.80
2023-12-30T11:53:31.701Z,72.99
2023-12-30T11:54:31.639Z,70.58
2023-12-30T11:55:31.673Z,70.58
2023-12-30T11:56:31.815Z,70.90
2023-12-30T11:57:31.735Z,70.42
2023-12-30T11:58:31.657Z,72.83
2023-12-30T11:59:31.754Z,73.48
2023-12-30T12:00:31.721Z,72.51
2023-12-30T12:01:31.714Z,73.32
2023-12-30T12:02:31.629Z,72.03
2023-12-30T12:03:31.605Z,72.19
2023-12-30T12:04:31.638Z,68.64
2023-12-30T12:05:31.592Z,71.87
2023-12-30T12:06:31.578Z,72.99
2023-12-30T12:07:31.647Z,70.09
2023-12-30T12:08:31.488Z,73.15
2023-12-30T12:09:31.608Z,73.48
2023-12-30T12:10:31.595Z,73.32
2023-12-30T12:11:31.514Z,72.03
2023-12-30T12:12:31.447Z,70.90
2023-12-30T12:13:31.682Z,70.74
2023-12-30T12:14:31.408Z,74.28
2023-12-30T12:15:31.642Z,73.80
2023-12-30T12:16:31.421Z,69.61
2023-12-30T12:17:31.536Z,67.68
2023-12-30T12:18:31.476Z,74.28
2023-12-30T12:19:31.504Z,70.58
2023-12-30T12:20:31.397Z,73.32
2023-12-30T12:21:31.445Z,68.64
2023-12-30T12:22:31.450Z,70.09
2023-12-30T12:23:31.508Z,69.93
2023-12-30T12:24:31.416Z,72.19
2023-12-30T12:25:31.403Z,72.03
2023-12-30T12:26:33.055Z,71.22
2023-12-30T12:27:31.294Z,70.90
2023-12-30T12:28:31.383Z,72.51
2023-12-30T12:29:31.442Z,72.83
2023-12-30T12:30:31.290Z,70.58
2023-12-30T12:31:31.394Z,71.22
2023-12-30T12:32:33.003Z,73.96
2023-12-30T12:33:31.240Z,68.80
2023-12-30T12:34:31.295Z,71.54
2023-12-30T12:35:31.240Z,72.35
2023-12-30T12:36:31.294Z,71.22
2023-12-30T12:37:31.653Z,68.16
2023-12-30T12:38:31.164Z,69.61
2023-12-30T12:39:31.201Z,71.06
2023-12-30T12:40:31.178Z,69.13
2023-12-30T12:41:31.107Z,67.35
2023-12-30T12:42:31.560Z,65.74
2023-12-30T12:43:31.272Z,72.19
2023-12-30T12:44:31.152Z,72.99
2023-12-30T12:45:31.660Z,70.25
2023-12-30T12:46:31.179Z,72.35
2023-12-30T12:47:31.166Z,68.80
2023-12-30T12:48:31.193Z,68.48
2023-12-30T12:49:31.515Z,69.45
2023-12-30T12:50:31.157Z,69.13
2023-12-30T12:51:31.741Z,69.77
2023-12-30T12:52:32.118Z,70.25
2023-12-30T12:53:31.076Z,68.96